Strathkinness, United Kingdom
Current Conditions -  °F | °C
As of 10:50 AM on Sunday 26 Oct 2014 (Local Time) from EGQL Reporting Station
Scattered Clouds Scattered Clouds  
Wind Chill: 14°   Ceiling: Unl
Heat Index: 14°   Visibility: 6mi
Dew Point:   Wind: 33mph
Humidity: 67%   Direction: 240°WSW
Pressure: 29.59"   Gusts: 48mph
Location:  56.33°N, 2.87°W
Report Text: EGQL 260950Z 24029G42KT 9999 SCT025 14/08 Q1002 BLU
Loading
Personal Weather Stations






























Interactive Weather Map
Tropical Storm Tracking
New forecast layout! Learn more

10-Day Weather Forecast

Advertisements
Track Severe Weather on mobile